sensor_id;sensor_type;location;lat;lon;timestamp;P1;durP1;ratioP1;P2;durP2;ratioP2
68633;SDS011;55625;47.072;22.192;2023-01-29T00:01:56;5.50;;;3.17;;
68633;SDS011;55625;47.072;22.192;2023-01-29T00:04:22;6.38;;;4.50;;
68633;SDS011;55625;47.072;22.192;2023-01-29T00:06:48;10.67;;;3.13;;
68633;SDS011;55625;47.072;22.192;2023-01-29T00:09:14;15.98;;;3.30;;
68633;SDS011;55625;47.072;22.192;2023-01-29T00:11:40;3.50;;;2.40;;
68633;SDS011;55625;47.072;22.192;2023-01-29T00:14:06;8.68;;;4.05;;
68633;SDS011;55625;47.072;22.192;2023-01-29T00:16:32;4.97;;;3.17;;
68633;SDS011;55625;47.072;22.192;2023-01-29T00:18:59;3.10;;;2.53;;
68633;SDS011;55625;47.072;22.192;2023-01-29T00:21:26;6.00;;;2.95;;
68633;SDS011;55625;47.072;22.192;2023-01-29T00:23:55;4.13;;;1.85;;
68633;SDS011;55625;47.072;22.192;2023-01-29T00:26:21;7.27;;;4.23;;
68633;SDS011;55625;47.072;22.192;2023-01-29T00:28:47;2.95;;;1.88;;
68633;SDS011;55625;47.072;22.192;2023-01-29T00:31:14;5.78;;;2.33;;
68633;SDS011;55625;47.072;22.192;2023-01-29T00:33:45;3.92;;;2.55;;
68633;SDS011;55625;47.072;22.192;2023-01-29T00:36:13;9.13;;;3.38;;
68633;SDS011;55625;47.072;22.192;2023-01-29T00:38:42;3.53;;;2.20;;
68633;SDS011;55625;47.072;22.192;2023-01-29T00:41:09;7.32;;;3.53;;
68633;SDS011;55625;47.072;22.192;2023-01-29T00:43:58;4.50;;;2.20;;
68633;SDS011;55625;47.072;22.192;2023-01-29T00:46:44;10.65;;;3.90;;
68633;SDS011;55625;47.072;22.192;2023-01-29T00:49:10;2.67;;;2.10;;
68633;SDS011;55625;47.072;22.192;2023-01-29T00:51:37;3.83;;;2.20;;
68633;SDS011;55625;47.072;22.192;2023-01-29T00:54:04;5.28;;;1.83;;
68633;SDS011;55625;47.072;22.192;2023-01-29T00:56:33;4.18;;;1.65;;
68633;SDS011;55625;47.072;22.192;2023-01-29T00:59:00;4.03;;;3.00;;
68633;SDS011;55625;47.072;22.192;2023-01-29T01:01:27;5.28;;;2.25;;
68633;SDS011;55625;47.072;22.192;2023-01-29T01:04:12;3.97;;;3.27;;
68633;SDS011;55625;47.072;22.192;2023-01-29T01:06:41;6.75;;;2.85;;
68633;SDS011;55625;47.072;22.192;2023-01-29T01:09:08;4.05;;;2.80;;
68633;SDS011;55625;47.072;22.192;2023-01-29T01:11:53;4.07;;;1.60;;
68633;SDS011;55625;47.072;22.192;2023-01-29T01:14:20;3.83;;;3.28;;
68633;SDS011;55625;47.072;22.192;2023-01-29T01:16:46;7.83;;;2.87;;
68633;SDS011;55625;47.072;22.192;2023-01-29T01:19:13;7.53;;;3.50;;
68633;SDS011;55625;47.072;22.192;2023-01-29T01:21:39;2.75;;;2.35;;
68633;SDS011;55625;47.072;22.192;2023-01-29T01:24:09;4.28;;;3.38;;
68633;SDS011;55625;47.072;22.192;2023-01-29T01:26:38;6.30;;;4.10;;
68633;SDS011;55625;47.072;22.192;2023-01-29T01:29:04;4.90;;;3.77;;
68633;SDS011;55625;47.072;22.192;2023-01-29T01:31:30;6.60;;;3.08;;
68633;SDS011;55625;47.072;22.192;2023-01-29T01:33:56;6.18;;;3.88;;
68633;SDS011;55625;47.072;22.192;2023-01-29T01:36:22;8.03;;;5.53;;
68633;SDS011;55625;47.072;22.192;2023-01-29T01:38:48;15.00;;;6.40;;
68633;SDS011;55625;47.072;22.192;2023-01-29T01:41:15;4.70;;;2.60;;
68633;SDS011;55625;47.072;22.192;2023-01-29T01:46:28;7.00;;;3.20;;
68633;SDS011;55625;47.072;22.192;2023-01-29T01:48:57;7.28;;;3.50;;
68633;SDS011;55625;47.072;22.192;2023-01-29T01:51:40;3.25;;;2.85;;
68633;SDS011;55625;47.072;22.192;2023-01-29T01:54:16;4.83;;;2.53;;
68633;SDS011;55625;47.072;22.192;2023-01-29T01:56:50;5.88;;;1.73;;
68633;SDS011;55625;47.072;22.192;2023-01-29T01:59:34;2.22;;;1.90;;
68633;SDS011;55625;47.072;22.192;2023-01-29T02:02:02;3.42;;;1.55;;
68633;SDS011;55625;47.072;22.192;2023-01-29T02:04:48;3.03;;;1.40;;
68633;SDS011;55625;47.072;22.192;2023-01-29T02:07:32;6.03;;;4.07;;
68633;SDS011;55625;47.072;22.192;2023-01-29T02:10:18;5.07;;;2.63;;
68633;SDS011;55625;47.072;22.192;2023-01-29T02:12:45;6.82;;;2.70;;
68633;SDS011;55625;47.072;22.192;2023-01-29T02:15:12;7.05;;;3.00;;
68633;SDS011;55625;47.072;22.192;2023-01-29T02:17:38;8.40;;;2.35;;
68633;SDS011;55625;47.072;22.192;2023-01-29T02:20:11;6.90;;;3.03;;
68633;SDS011;55625;47.072;22.192;2023-01-29T02:28:46;3.28;;;1.55;;
68633;SDS011;55625;47.072;22.192;2023-01-29T02:31:43;1.85;;;1.42;;
68633;SDS011;55625;47.072;22.192;2023-01-29T02:49:24;4.57;;;1.40;;
68633;SDS011;55625;47.072;22.192;2023-01-29T02:55:23;7.03;;;2.72;;
68633;SDS011;55625;47.072;22.192;2023-01-29T02:57:58;2.13;;;1.60;;
68633;SDS011;55625;47.072;22.192;2023-01-29T03:00:38;5.60;;;2.58;;
68633;SDS011;55625;47.072;22.192;2023-01-29T03:03:19;7.90;;;2.73;;
68633;SDS011;55625;47.072;22.192;2023-01-29T03:05:58;6.00;;;3.50;;
68633;SDS011;55625;47.072;22.192;2023-01-29T03:08:31;3.90;;;2.05;;
68633;SDS011;55625;47.072;22.192;2023-01-29T03:11:12;5.13;;;2.15;;
68633;SDS011;55625;47.072;22.192;2023-01-29T03:13:49;2.05;;;1.23;;
68633;SDS011;55625;47.072;22.192;2023-01-29T03:16:48;3.17;;;2.13;;
68633;SDS011;55625;47.072;22.192;2023-01-29T03:19:26;3.70;;;2.05;;
68633;SDS011;55625;47.072;22.192;2023-01-29T03:22:00;9.93;;;3.53;;
68633;SDS011;55625;47.072;22.192;2023-01-29T03:27:42;3.65;;;2.20;;
68633;SDS011;55625;47.072;22.192;2023-01-29T03:30:32;10.83;;;1.57;;
68633;SDS011;55625;47.072;22.192;2023-01-29T03:33:23;8.43;;;2.22;;
68633;SDS011;55625;47.072;22.192;2023-01-29T03:35:57;4.57;;;3.65;;
68633;SDS011;55625;47.072;22.192;2023-01-29T03:38:30;5.15;;;3.38;;
68633;SDS011;55625;47.072;22.192;2023-01-29T03:40:58;7.57;;;2.78;;
68633;SDS011;55625;47.072;22.192;2023-01-29T03:43:58;5.63;;;2.77;;
68633;SDS011;55625;47.072;22.192;2023-01-29T03:56:01;4.18;;;3.28;;
68633;SDS011;55625;47.072;22.192;2023-01-29T03:58:57;2.87;;;1.20;;
68633;SDS011;55625;47.072;22.192;2023-01-29T04:01:35;6.65;;;2.35;;
68633;SDS011;55625;47.072;22.192;2023-01-29T04:04:13;6.07;;;3.42;;
68633;SDS011;55625;47.072;22.192;2023-01-29T04:07:07;9.68;;;3.80;;
68633;SDS011;55625;47.072;22.192;2023-01-29T04:09:42;3.33;;;2.45;;
68633;SDS011;55625;47.072;22.192;2023-01-29T04:12:29;2.10;;;1.30;;
68633;SDS011;55625;47.072;22.192;2023-01-29T04:15:02;3.40;;;1.55;;
68633;SDS011;55625;47.072;22.192;2023-01-29T04:17:34;4.13;;;2.28;;
68633;SDS011;55625;47.072;22.192;2023-01-29T04:20:04;6.07;;;4.18;;
68633;SDS011;55625;47.072;22.192;2023-01-29T04:22:34;6.50;;;2.83;;
68633;SDS011;55625;47.072;22.192;2023-01-29T04:25:04;5.50;;;3.43;;
68633;SDS011;55625;47.072;22.192;2023-01-29T04:27:42;4.55;;;2.90;;
68633;SDS011;55625;47.072;22.192;2023-01-29T04:39:21;6.47;;;3.90;;
68633;SDS011;55625;47.072;22.192;2023-01-29T04:44:58;6.50;;;2.65;;
68633;SDS011;55625;47.072;22.192;2023-01-29T04:56:52;4.47;;;2.75;;
68633;SDS011;55625;47.072;22.192;2023-01-29T04:59:45;5.55;;;2.60;;
68633;SDS011;55625;47.072;22.192;2023-01-29T05:02:16;2.63;;;1.73;;
68633;SDS011;55625;47.072;22.192;2023-01-29T05:04:46;7.20;;;2.40;;
68633;SDS011;55625;47.072;22.192;2023-01-29T05:07:14;9.57;;;2.73;;
68633;SDS011;55625;47.072;22.192;2023-01-29T05:09:42;7.00;;;2.55;;
68633;SDS011;55625;47.072;22.192;2023-01-29T05:12:11;13.70;;;4.47;;
68633;SDS011;55625;47.072;22.192;2023-01-29T05:14:40;5.93;;;2.30;;
68633;SDS011;55625;47.072;22.192;2023-01-29T05:17:11;4.20;;;2.95;;
68633;SDS011;55625;47.072;22.192;2023-01-29T05:19:42;3.40;;;2.23;;
68633;SDS011;55625;47.072;22.192;2023-01-29T05:22:09;10.13;;;2.63;;
68633;SDS011;55625;47.072;22.192;2023-01-29T05:24:39;2.45;;;1.15;;
68633;SDS011;55625;47.072;22.192;2023-01-29T05:27:04;3.03;;;2.22;;
68633;SDS011;55625;47.072;22.192;2023-01-29T05:29:49;4.07;;;1.77;;
68633;SDS011;55625;47.072;22.192;2023-01-29T05:32:15;3.47;;;2.47;;
68633;SDS011;55625;47.072;22.192;2023-01-29T05:34:41;8.32;;;3.50;;
68633;SDS011;55625;47.072;22.192;2023-01-29T05:37:08;4.65;;;1.90;;
68633;SDS011;55625;47.072;22.192;2023-01-29T05:39:34;4.87;;;2.00;;
68633;SDS011;55625;47.072;22.192;2023-01-29T05:42:00;4.18;;;2.55;;
68633;SDS011;55625;47.072;22.192;2023-01-29T05:44:26;2.28;;;1.50;;
68633;SDS011;55625;47.072;22.192;2023-01-29T05:46:52;3.33;;;2.07;;
68633;SDS011;55625;47.072;22.192;2023-01-29T05:49:18;3.85;;;2.22;;
68633;SDS011;55625;47.072;22.192;2023-01-29T05:51:44;10.45;;;2.80;;
68633;SDS011;55625;47.072;22.192;2023-01-29T05:54:11;3.88;;;2.13;;
68633;SDS011;55625;47.072;22.192;2023-01-29T05:56:37;4.70;;;3.17;;
68633;SDS011;55625;47.072;22.192;2023-01-29T05:59:04;7.78;;;3.30;;
68633;SDS011;55625;47.072;22.192;2023-01-29T06:01:30;9.25;;;5.20;;
68633;SDS011;55625;47.072;22.192;2023-01-29T06:03:56;3.58;;;2.00;;
68633;SDS011;55625;47.072;22.192;2023-01-29T06:06:22;4.10;;;2.23;;
68633;SDS011;55625;47.072;22.192;2023-01-29T06:08:47;3.63;;;1.85;;
68633;SDS011;55625;47.072;22.192;2023-01-29T06:11:14;3.23;;;1.87;;
68633;SDS011;55625;47.072;22.192;2023-01-29T06:13:42;4.37;;;3.13;;
68633;SDS011;55625;47.072;22.192;2023-01-29T06:16:10;9.82;;;5.05;;
68633;SDS011;55625;47.072;22.192;2023-01-29T06:18:37;6.85;;;3.17;;
68633;SDS011;55625;47.072;22.192;2023-01-29T06:21:06;4.53;;;3.58;;
68633;SDS011;55625;47.072;22.192;2023-01-29T06:23:35;3.78;;;2.53;;
68633;SDS011;55625;47.072;22.192;2023-01-29T06:26:02;3.40;;;2.37;;
68633;SDS011;55625;47.072;22.192;2023-01-29T06:28:31;7.70;;;4.88;;
68633;SDS011;55625;47.072;22.192;2023-01-29T06:31:01;4.22;;;2.50;;
68633;SDS011;55625;47.072;22.192;2023-01-29T06:33:28;4.45;;;2.58;;
68633;SDS011;55625;47.072;22.192;2023-01-29T06:35:55;3.00;;;2.25;;
68633;SDS011;55625;47.072;22.192;2023-01-29T06:38:26;9.10;;;2.73;;
68633;SDS011;55625;47.072;22.192;2023-01-29T06:40:53;13.43;;;2.67;;
68633;SDS011;55625;47.072;22.192;2023-01-29T06:43:20;6.10;;;2.53;;
68633;SDS011;55625;47.072;22.192;2023-01-29T06:46:06;9.38;;;4.60;;
68633;SDS011;55625;47.072;22.192;2023-01-29T06:48:32;4.88;;;3.85;;
68633;SDS011;55625;47.072;22.192;2023-01-29T06:51:02;2.47;;;1.37;;
68633;SDS011;55625;47.072;22.192;2023-01-29T06:53:31;6.65;;;3.67;;
68633;SDS011;55625;47.072;22.192;2023-01-29T06:55:59;3.10;;;2.53;;
68633;SDS011;55625;47.072;22.192;2023-01-29T06:58:25;4.13;;;3.08;;
68633;SDS011;55625;47.072;22.192;2023-01-29T07:00:51;4.63;;;2.90;;
68633;SDS011;55625;47.072;22.192;2023-01-29T07:03:17;3.13;;;2.03;;
68633;SDS011;55625;47.072;22.192;2023-01-29T07:05:48;2.17;;;1.48;;
68633;SDS011;55625;47.072;22.192;2023-01-29T07:08:16;6.80;;;2.65;;
68633;SDS011;55625;47.072;22.192;2023-01-29T07:10:42;2.70;;;1.60;;
68633;SDS011;55625;47.072;22.192;2023-01-29T07:13:08;6.38;;;2.33;;
68633;SDS011;55625;47.072;22.192;2023-01-29T07:15:34;4.18;;;2.10;;
68633;SDS011;55625;47.072;22.192;2023-01-29T07:18:01;5.68;;;4.47;;
68633;SDS011;55625;47.072;22.192;2023-01-29T07:20:30;7.07;;;4.00;;
68633;SDS011;55625;47.072;22.192;2023-01-29T07:22:56;8.35;;;2.30;;
68633;SDS011;55625;47.072;22.192;2023-01-29T07:25:23;3.88;;;2.38;;
68633;SDS011;55625;47.072;22.192;2023-01-29T07:27:49;10.00;;;4.35;;
68633;SDS011;55625;47.072;22.192;2023-01-29T07:30:15;4.13;;;3.63;;
68633;SDS011;55625;47.072;22.192;2023-01-29T07:32:42;6.72;;;5.22;;
68633;SDS011;55625;47.072;22.192;2023-01-29T07:35:08;3.28;;;2.92;;
68633;SDS011;55625;47.072;22.192;2023-01-29T07:37:34;4.90;;;3.03;;
68633;SDS011;55625;47.072;22.192;2023-01-29T07:40:00;8.97;;;4.63;;
68633;SDS011;55625;47.072;22.192;2023-01-29T07:42:28;15.15;;;4.38;;
68633;SDS011;55625;47.072;22.192;2023-01-29T07:44:55;5.57;;;3.65;;
68633;SDS011;55625;47.072;22.192;2023-01-29T07:47:20;5.30;;;4.30;;
68633;SDS011;55625;47.072;22.192;2023-01-29T07:49:46;4.47;;;3.43;;
68633;SDS011;55625;47.072;22.192;2023-01-29T07:52:12;3.03;;;2.47;;
68633;SDS011;55625;47.072;22.192;2023-01-29T07:54:38;13.02;;;5.20;;
68633;SDS011;55625;47.072;22.192;2023-01-29T07:57:04;4.03;;;2.87;;
68633;SDS011;55625;47.072;22.192;2023-01-29T07:59:29;4.97;;;2.63;;
68633;SDS011;55625;47.072;22.192;2023-01-29T08:01:55;7.72;;;4.70;;
68633;SDS011;55625;47.072;22.192;2023-01-29T08:04:21;2.27;;;1.60;;
68633;SDS011;55625;47.072;22.192;2023-01-29T08:06:47;4.60;;;2.97;;
68633;SDS011;55625;47.072;22.192;2023-01-29T08:09:13;2.60;;;2.30;;
68633;SDS011;55625;47.072;22.192;2023-01-29T08:11:39;8.70;;;4.03;;
68633;SDS011;55625;47.072;22.192;2023-01-29T08:14:04;3.33;;;2.58;;
68633;SDS011;55625;47.072;22.192;2023-01-29T08:16:32;8.02;;;3.53;;
68633;SDS011;55625;47.072;22.192;2023-01-29T08:18:58;9.23;;;3.23;;
68633;SDS011;55625;47.072;22.192;2023-01-29T08:21:25;3.72;;;2.17;;
68633;SDS011;55625;47.072;22.192;2023-01-29T08:23:51;11.45;;;9.57;;
68633;SDS011;55625;47.072;22.192;2023-01-29T08:26:16;5.87;;;5.27;;
68633;SDS011;55625;47.072;22.192;2023-01-29T08:28:42;6.75;;;5.50;;
68633;SDS011;55625;47.072;22.192;2023-01-29T08:31:12;9.63;;;5.95;;
68633;SDS011;55625;47.072;22.192;2023-01-29T08:33:44;11.77;;;4.70;;
68633;SDS011;55625;47.072;22.192;2023-01-29T08:36:10;6.28;;;3.00;;
68633;SDS011;55625;47.072;22.192;2023-01-29T08:38:36;11.45;;;8.60;;
68633;SDS011;55625;47.072;22.192;2023-01-29T08:41:02;11.75;;;8.43;;
68633;SDS011;55625;47.072;22.192;2023-01-29T08:43:28;9.40;;;6.93;;
68633;SDS011;55625;47.072;22.192;2023-01-29T08:45:54;22.90;;;7.95;;
68633;SDS011;55625;47.072;22.192;2023-01-29T08:48:20;8.68;;;5.38;;
68633;SDS011;55625;47.072;22.192;2023-01-29T08:50:45;26.03;;;8.43;;
68633;SDS011;55625;47.072;22.192;2023-01-29T08:53:11;18.90;;;9.25;;
68633;SDS011;55625;47.072;22.192;2023-01-29T08:55:39;11.90;;;6.20;;
68633;SDS011;55625;47.072;22.192;2023-01-29T08:58:06;5.05;;;3.67;;
68633;SDS011;55625;47.072;22.192;2023-01-29T09:00:34;11.33;;;5.17;;
68633;SDS011;55625;47.072;22.192;2023-01-29T09:03:01;12.85;;;4.53;;
68633;SDS011;55625;47.072;22.192;2023-01-29T09:05:27;5.05;;;3.78;;
68633;SDS011;55625;47.072;22.192;2023-01-29T09:07:57;10.57;;;4.20;;
68633;SDS011;55625;47.072;22.192;2023-01-29T09:10:23;4.20;;;2.20;;
68633;SDS011;55625;47.072;22.192;2023-01-29T09:12:49;3.40;;;1.63;;
68633;SDS011;55625;47.072;22.192;2023-01-29T09:15:15;3.97;;;2.38;;
68633;SDS011;55625;47.072;22.192;2023-01-29T09:17:41;5.60;;;2.00;;
68633;SDS011;55625;47.072;22.192;2023-01-29T09:20:07;11.57;;;4.53;;
68633;SDS011;55625;47.072;22.192;2023-01-29T09:22:34;3.08;;;2.40;;
68633;SDS011;55625;47.072;22.192;2023-01-29T09:25:00;5.88;;;2.97;;
68633;SDS011;55625;47.072;22.192;2023-01-29T09:27:26;29.02;;;17.20;;
68633;SDS011;55625;47.072;22.192;2023-01-29T09:29:52;36.80;;;19.93;;
68633;SDS011;55625;47.072;22.192;2023-01-29T09:32:18;17.55;;;7.28;;
68633;SDS011;55625;47.072;22.192;2023-01-29T09:34:44;11.52;;;4.72;;
68633;SDS011;55625;47.072;22.192;2023-01-29T09:37:10;8.53;;;4.80;;
68633;SDS011;55625;47.072;22.192;2023-01-29T09:39:36;5.38;;;3.88;;
68633;SDS011;55625;47.072;22.192;2023-01-29T09:47:45;15.90;;;7.72;;
68633;SDS011;55625;47.072;22.192;2023-01-29T09:52:45;11.52;;;6.07;;
68633;SDS011;55625;47.072;22.192;2023-01-29T09:55:29;13.30;;;4.18;;
68633;SDS011;55625;47.072;22.192;2023-01-29T09:58:20;5.40;;;3.77;;
68633;SDS011;55625;47.072;22.192;2023-01-29T10:01:15;8.77;;;4.38;;
68633;SDS011;55625;47.072;22.192;2023-01-29T10:10:33;6.97;;;2.50;;
68633;SDS011;55625;47.072;22.192;2023-01-29T10:20:00;2.33;;;1.63;;
68633;SDS011;55625;47.072;22.192;2023-01-29T10:22:10;2.13;;;1.63;;
68633;SDS011;55625;47.072;22.192;2023-01-29T10:25:30;5.47;;;3.95;;
68633;SDS011;55625;47.072;22.192;2023-01-29T10:27:50;6.27;;;2.00;;
68633;SDS011;55625;47.072;22.192;2023-01-29T10:33:05;4.15;;;2.15;;
68633;SDS011;55625;47.072;22.192;2023-01-29T10:35:42;4.90;;;2.38;;
68633;SDS011;55625;47.072;22.192;2023-01-29T10:38:20;6.05;;;4.32;;
68633;SDS011;55625;47.072;22.192;2023-01-29T10:43:37;3.75;;;1.67;;
68633;SDS011;55625;47.072;22.192;2023-01-29T10:49:21;3.15;;;1.95;;
68633;SDS011;55625;47.072;22.192;2023-01-29T10:52:22;2.65;;;1.42;;
68633;SDS011;55625;47.072;22.192;2023-01-29T11:00:51;3.30;;;2.47;;
68633;SDS011;55625;47.072;22.192;2023-01-29T11:03:24;5.25;;;3.22;;
68633;SDS011;55625;47.072;22.192;2023-01-29T11:11:56;3.83;;;2.15;;
68633;SDS011;55625;47.072;22.192;2023-01-29T11:17:02;3.92;;;2.78;;
68633;SDS011;55625;47.072;22.192;2023-01-29T11:19:35;3.88;;;1.80;;
68633;SDS011;55625;47.072;22.192;2023-01-29T11:22:16;3.07;;;1.53;;
68633;SDS011;55625;47.072;22.192;2023-01-29T11:24:44;5.80;;;1.75;;
68633;SDS011;55625;47.072;22.192;2023-01-29T11:27:14;1.73;;;0.90;;
68633;SDS011;55625;47.072;22.192;2023-01-29T11:29:51;4.53;;;1.52;;
68633;SDS011;55625;47.072;22.192;2023-01-29T11:34:59;3.20;;;2.20;;
68633;SDS011;55625;47.072;22.192;2023-01-29T11:37:32;3.28;;;2.20;;
68633;SDS011;55625;47.072;22.192;2023-01-29T11:40:00;1.33;;;0.73;;
68633;SDS011;55625;47.072;22.192;2023-01-29T11:42:49;2.58;;;0.70;;
68633;SDS011;55625;47.072;22.192;2023-01-29T11:47:47;9.37;;;2.97;;
68633;SDS011;55625;47.072;22.192;2023-01-29T11:50:19;2.75;;;1.50;;
68633;SDS011;55625;47.072;22.192;2023-01-29T11:52:48;3.72;;;1.48;;
68633;SDS011;55625;47.072;22.192;2023-01-29T11:57:50;8.13;;;3.38;;
68633;SDS011;55625;47.072;22.192;2023-01-29T12:00:28;4.07;;;2.20;;
68633;SDS011;55625;47.072;22.192;2023-01-29T12:06:01;3.63;;;1.30;;
68633;SDS011;55625;47.072;22.192;2023-01-29T12:08:34;2.97;;;0.95;;
68633;SDS011;55625;47.072;22.192;2023-01-29T12:11:13;4.25;;;2.83;;
68633;SDS011;55625;47.072;22.192;2023-01-29T12:13:53;1.57;;;0.73;;
68633;SDS011;55625;47.072;22.192;2023-01-29T12:25:23;2.72;;;1.27;;
68633;SDS011;55625;47.072;22.192;2023-01-29T12:34:09;3.55;;;1.52;;
68633;SDS011;55625;47.072;22.192;2023-01-29T12:39:54;3.40;;;1.23;;
68633;SDS011;55625;47.072;22.192;2023-01-29T12:42:21;2.07;;;1.17;;
68633;SDS011;55625;47.072;22.192;2023-01-29T12:45:02;2.00;;;1.27;;
68633;SDS011;55625;47.072;22.192;2023-01-29T12:47:36;2.78;;;0.85;;
68633;SDS011;55625;47.072;22.192;2023-01-29T12:52:57;2.40;;;1.67;;
68633;SDS011;55625;47.072;22.192;2023-01-29T12:55:52;2.33;;;1.33;;
68633;SDS011;55625;47.072;22.192;2023-01-29T13:01:49;3.17;;;1.52;;
68633;SDS011;55625;47.072;22.192;2023-01-29T13:04:17;2.90;;;1.30;;
68633;SDS011;55625;47.072;22.192;2023-01-29T13:07:10;1.60;;;1.02;;
68633;SDS011;55625;47.072;22.192;2023-01-29T13:09:49;3.53;;;1.27;;
68633;SDS011;55625;47.072;22.192;2023-01-29T13:12:21;4.75;;;1.73;;
68633;SDS011;55625;47.072;22.192;2023-01-29T13:18:04;2.10;;;0.95;;
68633;SDS011;55625;47.072;22.192;2023-01-29T13:20:59;2.75;;;1.60;;
68633;SDS011;55625;47.072;22.192;2023-01-29T13:23:45;2.60;;;1.83;;
68633;SDS011;55625;47.072;22.192;2023-01-29T13:26:17;2.88;;;0.95;;
68633;SDS011;55625;47.072;22.192;2023-01-29T13:28:44;7.53;;;2.60;;
68633;SDS011;55625;47.072;22.192;2023-01-29T13:36:49;2.37;;;1.47;;
68633;SDS011;55625;47.072;22.192;2023-01-29T13:39:22;5.00;;;1.42;;
68633;SDS011;55625;47.072;22.192;2023-01-29T13:41:49;2.58;;;1.50;;
68633;SDS011;55625;47.072;22.192;2023-01-29T13:44:30;1.42;;;0.80;;
68633;SDS011;55625;47.072;22.192;2023-01-29T13:47:07;6.65;;;1.48;;
68633;SDS011;55625;47.072;22.192;2023-01-29T13:52:20;6.93;;;0.82;;
68633;SDS011;55625;47.072;22.192;2023-01-29T13:54:54;4.00;;;2.05;;
68633;SDS011;55625;47.072;22.192;2023-01-29T14:13:42;2.50;;;1.30;;
68633;SDS011;55625;47.072;22.192;2023-01-29T14:18:43;2.28;;;1.15;;
68633;SDS011;55625;47.072;22.192;2023-01-29T14:21:28;4.70;;;3.03;;
68633;SDS011;55625;47.072;22.192;2023-01-29T14:24:18;4.60;;;1.23;;
68633;SDS011;55625;47.072;22.192;2023-01-29T14:26:51;1.60;;;0.90;;
68633;SDS011;55625;47.072;22.192;2023-01-29T14:29:28;2.15;;;0.80;;
68633;SDS011;55625;47.072;22.192;2023-01-29T14:39:41;10.65;;;3.15;;
68633;SDS011;55625;47.072;22.192;2023-01-29T14:56:00;2.05;;;1.30;;
68633;SDS011;55625;47.072;22.192;2023-01-29T15:02:15;5.75;;;1.33;;
68633;SDS011;55625;47.072;22.192;2023-01-29T15:04:57;1.97;;;0.60;;
68633;SDS011;55625;47.072;22.192;2023-01-29T15:08:07;1.48;;;0.90;;
68633;SDS011;55625;47.072;22.192;2023-01-29T15:10:20;1.92;;;1.52;;
68633;SDS011;55625;47.072;22.192;2023-01-29T15:13:20;4.80;;;1.10;;
68633;SDS011;55625;47.072;22.192;2023-01-29T15:16:08;1.48;;;1.13;;
68633;SDS011;55625;47.072;22.192;2023-01-29T15:18:45;1.37;;;0.83;;
68633;SDS011;55625;47.072;22.192;2023-01-29T15:21:15;2.08;;;1.20;;
68633;SDS011;55625;47.072;22.192;2023-01-29T15:23:43;2.95;;;1.95;;
68633;SDS011;55625;47.072;22.192;2023-01-29T15:26:16;2.58;;;1.65;;
68633;SDS011;55625;47.072;22.192;2023-01-29T15:28:50;1.40;;;1.10;;
68633;SDS011;55625;47.072;22.192;2023-01-29T15:31:20;2.20;;;0.93;;
68633;SDS011;55625;47.072;22.192;2023-01-29T15:33:47;4.00;;;1.42;;
68633;SDS011;55625;47.072;22.192;2023-01-29T15:36:28;2.70;;;1.45;;
68633;SDS011;55625;47.072;22.192;2023-01-29T15:41:36;17.80;;;2.55;;
68633;SDS011;55625;47.072;22.192;2023-01-29T15:44:03;7.50;;;1.37;;
68633;SDS011;55625;47.072;22.192;2023-01-29T15:46:44;2.33;;;1.35;;
68633;SDS011;55625;47.072;22.192;2023-01-29T15:49:29;2.83;;;1.58;;
68633;SDS011;55625;47.072;22.192;2023-01-29T15:52:01;8.38;;;4.95;;
68633;SDS011;55625;47.072;22.192;2023-01-29T15:54:31;20.50;;;7.35;;
68633;SDS011;55625;47.072;22.192;2023-01-29T15:56:59;8.73;;;3.87;;
68633;SDS011;55625;47.072;22.192;2023-01-29T15:59:35;2.75;;;1.17;;
68633;SDS011;55625;47.072;22.192;2023-01-29T16:02:26;12.88;;;7.53;;
68633;SDS011;55625;47.072;22.192;2023-01-29T16:04:58;32.80;;;17.27;;
68633;SDS011;55625;47.072;22.192;2023-01-29T16:07:24;10.90;;;8.05;;
68633;SDS011;55625;47.072;22.192;2023-01-29T16:09:51;23.77;;;11.10;;
68633;SDS011;55625;47.072;22.192;2023-01-29T16:12:19;25.67;;;8.07;;
68633;SDS011;55625;47.072;22.192;2023-01-29T16:14:45;3.28;;;2.72;;
68633;SDS011;55625;47.072;22.192;2023-01-29T16:17:21;24.00;;;9.05;;
68633;SDS011;55625;47.072;22.192;2023-01-29T16:19:57;21.90;;;9.10;;
68633;SDS011;55625;47.072;22.192;2023-01-29T16:22:27;9.47;;;5.53;;
68633;SDS011;55625;47.072;22.192;2023-01-29T16:25:00;8.50;;;5.50;;
68633;SDS011;55625;47.072;22.192;2023-01-29T16:27:31;5.53;;;4.47;;
68633;SDS011;55625;47.072;22.192;2023-01-29T16:29:59;13.23;;;8.40;;
68633;SDS011;55625;47.072;22.192;2023-01-29T16:32:26;17.60;;;8.00;;
68633;SDS011;55625;47.072;22.192;2023-01-29T16:34:57;9.40;;;4.77;;
68633;SDS011;55625;47.072;22.192;2023-01-29T16:39:56;8.70;;;5.85;;
68633;SDS011;55625;47.072;22.192;2023-01-29T16:42:26;9.40;;;8.38;;
68633;SDS011;55625;47.072;22.192;2023-01-29T16:45:02;11.45;;;8.20;;
68633;SDS011;55625;47.072;22.192;2023-01-29T16:47:47;15.97;;;5.10;;
68633;SDS011;55625;47.072;22.192;2023-01-29T16:50:49;22.02;;;10.20;;
68633;SDS011;55625;47.072;22.192;2023-01-29T16:53:18;8.75;;;5.22;;
68633;SDS011;55625;47.072;22.192;2023-01-29T16:55:47;12.85;;;5.97;;
68633;SDS011;55625;47.072;22.192;2023-01-29T16:58:16;3.10;;;2.00;;
68633;SDS011;55625;47.072;22.192;2023-01-29T17:00:52;2.40;;;1.97;;
68633;SDS011;55625;47.072;22.192;2023-01-29T17:03:29;10.93;;;3.55;;
68633;SDS011;55625;47.072;22.192;2023-01-29T17:05:58;13.63;;;6.82;;
68633;SDS011;55625;47.072;22.192;2023-01-29T17:08:35;9.55;;;6.40;;
68633;SDS011;55625;47.072;22.192;2023-01-29T17:11:02;10.27;;;7.10;;
68633;SDS011;55625;47.072;22.192;2023-01-29T17:13:32;6.20;;;3.43;;
68633;SDS011;55625;47.072;22.192;2023-01-29T17:16:15;12.70;;;4.30;;
68633;SDS011;55625;47.072;22.192;2023-01-29T17:18:57;3.63;;;2.78;;
68633;SDS011;55625;47.072;22.192;2023-01-29T17:21:24;5.40;;;2.25;;
68633;SDS011;55625;47.072;22.192;2023-01-29T17:23:51;3.15;;;2.03;;
68633;SDS011;55625;47.072;22.192;2023-01-29T17:26:17;7.40;;;2.50;;
68633;SDS011;55625;47.072;22.192;2023-01-29T17:28:44;3.33;;;1.50;;
68633;SDS011;55625;47.072;22.192;2023-01-29T17:31:13;5.18;;;1.95;;
68633;SDS011;55625;47.072;22.192;2023-01-29T17:33:40;6.32;;;4.05;;
68633;SDS011;55625;47.072;22.192;2023-01-29T17:36:11;3.00;;;1.47;;
68633;SDS011;55625;47.072;22.192;2023-01-29T17:38:39;4.07;;;1.77;;
68633;SDS011;55625;47.072;22.192;2023-01-29T17:41:17;2.80;;;1.85;;
68633;SDS011;55625;47.072;22.192;2023-01-29T17:43:55;11.73;;;2.58;;
68633;SDS011;55625;47.072;22.192;2023-01-29T17:46:21;4.67;;;2.83;;
68633;SDS011;55625;47.072;22.192;2023-01-29T17:48:47;2.00;;;1.13;;
68633;SDS011;55625;47.072;22.192;2023-01-29T17:51:14;3.30;;;1.95;;
68633;SDS011;55625;47.072;22.192;2023-01-29T17:53:42;3.92;;;2.05;;
68633;SDS011;55625;47.072;22.192;2023-01-29T17:58:53;1.98;;;1.40;;
68633;SDS011;55625;47.072;22.192;2023-01-29T18:01:19;1.70;;;1.00;;
68633;SDS011;55625;47.072;22.192;2023-01-29T18:03:45;2.10;;;1.17;;
68633;SDS011;55625;47.072;22.192;2023-01-29T18:06:12;2.43;;;1.47;;
68633;SDS011;55625;47.072;22.192;2023-01-29T18:08:50;6.70;;;3.15;;
68633;SDS011;55625;47.072;22.192;2023-01-29T18:11:15;9.05;;;3.40;;
68633;SDS011;55625;47.072;22.192;2023-01-29T18:13:41;10.40;;;3.97;;
68633;SDS011;55625;47.072;22.192;2023-01-29T18:16:07;6.57;;;4.82;;
68633;SDS011;55625;47.072;22.192;2023-01-29T18:18:33;4.82;;;1.80;;
68633;SDS011;55625;47.072;22.192;2023-01-29T18:20:59;7.50;;;3.92;;
68633;SDS011;55625;47.072;22.192;2023-01-29T18:23:25;7.17;;;4.47;;
68633;SDS011;55625;47.072;22.192;2023-01-29T18:25:53;7.03;;;6.05;;